sensor_id;sensor_type;location;lat;lon;timestamp;pressure;altitude;pressure_sealevel;temperature;humidity
22020;BME280;51298;53.362;-1.518;2024-03-23T00:55:41;98919.41;;;2.92;87.43
22020;BME280;51298;53.362;-1.518;2024-03-23T00:58:28;98911.38;;;3.07;86.75
22020;BME280;51298;53.362;-1.518;2024-03-23T01:01:11;98901.38;;;3.13;86.57
22020;BME280;51298;53.362;-1.518;2024-03-23T01:04:07;98911.94;;;3.10;86.43
22020;BME280;51298;53.362;-1.518;2024-03-23T01:06:44;98895.84;;;3.18;86.53
22020;BME280;51298;53.362;-1.518;2024-03-23T01:09:40;98885.50;;;3.29;85.10
22020;BME280;51298;53.362;-1.518;2024-03-23T01:12:13;98892.38;;;3.40;84.93
22020;BME280;51298;53.362;-1.518;2024-03-23T01:15:15;98890.81;;;3.49;85.23
22020;BME280;51298;53.362;-1.518;2024-03-23T01:17:58;98883.16;;;3.58;84.83
22020;BME280;51298;53.362;-1.518;2024-03-23T01:20:48;98883.59;;;3.63;85.00
22020;BME280;51298;53.362;-1.518;2024-03-23T01:23:24;98889.72;;;3.62;85.25
22020;BME280;51298;53.362;-1.518;2024-03-23T01:26:16;98879.38;;;3.62;85.52
22020;BME280;51298;53.362;-1.518;2024-03-23T01:29:00;98875.03;;;3.63;85.21
22020;BME280;51298;53.362;-1.518;2024-03-23T01:31:51;98888.38;;;3.68;84.16
22020;BME280;51298;53.362;-1.518;2024-03-23T01:34:34;98882.84;;;3.73;83.75
22020;BME280;51298;53.362;-1.518;2024-03-23T01:37:23;98874.22;;;3.62;83.82
22020;BME280;51298;53.362;-1.518;2024-03-23T01:39:59;98879.72;;;3.69;82.65
22020;BME280;51298;53.362;-1.518;2024-03-23T01:43:01;98871.06;;;3.59;82.89
22020;BME280;51298;53.362;-1.518;2024-03-23T01:45:38;98857.59;;;3.55;83.22
22020;BME280;51298;53.362;-1.518;2024-03-23T01:48:28;98854.63;;;3.60;82.85
22020;BME280;51298;53.362;-1.518;2024-03-23T01:51:10;98845.56;;;3.65;81.09
22020;BME280;51298;53.362;-1.518;2024-03-23T01:53:58;98839.06;;;3.50;81.38
22020;BME280;51298;53.362;-1.518;2024-03-23T01:56:42;98847.06;;;3.47;81.69
22020;BME280;51298;53.362;-1.518;2024-03-23T01:59:45;98836.16;;;3.43;81.30
22020;BME280;51298;53.362;-1.518;2024-03-23T02:02:33;98850.38;;;3.38;80.31
22020;BME280;51298;53.362;-1.518;2024-03-23T02:05:20;98848.75;;;3.37;80.79
22020;BME280;51298;53.362;-1.518;2024-03-23T02:07:55;98847.22;;;3.34;80.62
22020;BME280;51298;53.362;-1.518;2024-03-23T02:10:49;98847.94;;;3.36;81.41
22020;BME280;51298;53.362;-1.518;2024-03-23T02:13:24;98840.13;;;3.48;80.85
22020;BME280;51298;53.362;-1.518;2024-03-23T02:16:22;98835.03;;;3.57;80.06
22020;BME280;51298;53.362;-1.518;2024-03-23T02:19:02;98831.75;;;3.55;80.82
22020;BME280;51298;53.362;-1.518;2024-03-23T02:21:50;98820.09;;;3.61;81.58
22020;BME280;51298;53.362;-1.518;2024-03-23T02:24:47;98810.16;;;3.56;82.30
22020;BME280;51298;53.362;-1.518;2024-03-23T02:27:37;98814.63;;;3.54;82.16
22020;BME280;51298;53.362;-1.518;2024-03-23T02:30:25;98812.50;;;3.59;82.48
22020;BME280;51298;53.362;-1.518;2024-03-23T02:33:25;98810.53;;;3.52;83.13
22020;BME280;51298;53.362;-1.518;2024-03-23T02:36:02;98797.06;;;3.48;83.68
22020;BME280;51298;53.362;-1.518;2024-03-23T02:38:56;98804.94;;;3.47;83.99
22020;BME280;51298;53.362;-1.518;2024-03-23T02:41:29;98800.69;;;3.46;84.58
22020;BME280;51298;53.362;-1.518;2024-03-23T02:44:25;98801.28;;;3.49;83.50
22020;BME280;51298;53.362;-1.518;2024-03-23T02:47:05;98796.56;;;3.54;83.85
22020;BME280;51298;53.362;-1.518;2024-03-23T02:50:02;98795.84;;;3.52;84.07
22020;BME280;51298;53.362;-1.518;2024-03-23T02:52:38;98798.81;;;3.48;83.52
22020;BME280;51298;53.362;-1.518;2024-03-23T02:55:32;98809.16;;;3.48;83.77
22020;BME280;51298;53.362;-1.518;2024-03-23T02:58:12;98807.97;;;3.52;83.74
22020;BME280;51298;53.362;-1.518;2024-03-23T03:01:05;98806.72;;;3.46;84.62
22020;BME280;51298;53.362;-1.518;2024-03-23T03:03:47;98805.44;;;3.40;84.24
22020;BME280;51298;53.362;-1.518;2024-03-23T03:06:36;98806.75;;;3.35;83.94
22020;BME280;51298;53.362;-1.518;2024-03-23T03:09:15;98795.31;;;3.28;83.56
22020;BME280;51298;53.362;-1.518;2024-03-23T03:12:07;98796.50;;;3.24;82.99
22020;BME280;51298;53.362;-1.518;2024-03-23T03:14:49;98781.78;;;3.35;81.70
22020;BME280;51298;53.362;-1.518;2024-03-23T03:17:37;98781.53;;;3.38;79.87
22020;BME280;51298;53.362;-1.518;2024-03-23T03:20:14;98783.25;;;3.38;79.25
22020;BME280;51298;53.362;-1.518;2024-03-23T03:23:10;98786.94;;;3.35;79.45
22020;BME280;51298;53.362;-1.518;2024-03-23T03:26:00;98774.28;;;3.32;79.89
22020;BME280;51298;53.362;-1.518;2024-03-23T03:29:08;98767.72;;;3.28;80.30
22020;BME280;51298;53.362;-1.518;2024-03-23T03:31:57;98769.72;;;3.46;80.28
22020;BME280;51298;53.362;-1.518;2024-03-23T03:34:36;98768.66;;;3.48;80.50
22020;BME280;51298;53.362;-1.518;2024-03-23T03:37:38;98761.63;;;3.50;79.04
22020;BME280;51298;53.362;-1.518;2024-03-23T03:40:25;98764.56;;;3.46;79.84
22020;BME280;51298;53.362;-1.518;2024-03-23T03:43:20;98765.84;;;3.51;78.99
22020;BME280;51298;53.362;-1.518;2024-03-23T03:45:59;98757.38;;;3.49;78.91
22020;BME280;51298;53.362;-1.518;2024-03-23T03:48:48;98744.75;;;3.46;79.10
22020;BME280;51298;53.362;-1.518;2024-03-23T03:51:27;98745.75;;;3.55;77.40
22020;BME280;51298;53.362;-1.518;2024-03-23T03:54:21;98734.22;;;3.59;77.99
22020;BME280;51298;53.362;-1.518;2024-03-23T03:57:07;98734.06;;;3.60;78.91
22020;BME280;51298;53.362;-1.518;2024-03-23T03:59:57;98727.53;;;3.56;79.49
22020;BME280;51298;53.362;-1.518;2024-03-23T04:02:33;98719.53;;;3.59;80.00
22020;BME280;51298;53.362;-1.518;2024-03-23T04:05:39;98695.94;;;3.43;81.12
22020;BME280;51298;53.362;-1.518;2024-03-23T04:08:17;98696.84;;;3.32;81.52
22020;BME280;51298;53.362;-1.518;2024-03-23T04:11:05;98694.44;;;3.40;81.29
22020;BME280;51298;53.362;-1.518;2024-03-23T04:13:47;98701.28;;;3.51;81.85
22020;BME280;51298;53.362;-1.518;2024-03-23T04:16:39;98700.97;;;3.45;81.86
22020;BME280;51298;53.362;-1.518;2024-03-23T04:19:13;98700.53;;;3.39;82.64
22020;BME280;51298;53.362;-1.518;2024-03-23T04:22:05;98696.13;;;3.30;83.70
22020;BME280;51298;53.362;-1.518;2024-03-23T04:25:06;98689.47;;;3.28;83.41
22020;BME280;51298;53.362;-1.518;2024-03-23T04:27:42;98677.16;;;3.31;82.24
22020;BME280;51298;53.362;-1.518;2024-03-23T04:30:38;98675.06;;;3.25;82.85
22020;BME280;51298;53.362;-1.518;2024-03-23T04:33:12;98674.31;;;3.13;83.84
22020;BME280;51298;53.362;-1.518;2024-03-23T04:35:59;98678.81;;;3.11;84.15
22020;BME280;51298;53.362;-1.518;2024-03-23T04:38:32;98677.41;;;3.07;84.89
22020;BME280;51298;53.362;-1.518;2024-03-23T04:41:19;98660.44;;;3.05;84.18
22020;BME280;51298;53.362;-1.518;2024-03-23T04:43:52;98661.09;;;3.07;84.59
22020;BME280;51298;53.362;-1.518;2024-03-23T04:46:40;98670.78;;;3.14;85.34
22020;BME280;51298;53.362;-1.518;2024-03-23T04:49:14;98674.06;;;3.16;85.50
22020;BME280;51298;53.362;-1.518;2024-03-23T04:52:05;98671.63;;;2.94;86.13
22020;BME280;51298;53.362;-1.518;2024-03-23T04:54:38;98668.44;;;2.81;86.81
22020;BME280;51298;53.362;-1.518;2024-03-23T04:57:25;98664.72;;;2.74;86.79
22020;BME280;51298;53.362;-1.518;2024-03-23T04:59:58;98663.31;;;2.69;87.49
22020;BME280;51298;53.362;-1.518;2024-03-23T05:02:57;98643.00;;;2.76;87.32
22020;BME280;51298;53.362;-1.518;2024-03-23T05:05:29;98636.91;;;2.77;86.66
22020;BME280;51298;53.362;-1.518;2024-03-23T05:08:15;98633.44;;;2.67;85.55
22020;BME280;51298;53.362;-1.518;2024-03-23T05:10:49;98630.47;;;2.72;85.46
22020;BME280;51298;53.362;-1.518;2024-03-23T05:13:35;98622.81;;;2.81;86.68
22020;BME280;51298;53.362;-1.518;2024-03-23T05:16:07;98636.44;;;2.72;86.41
22020;BME280;51298;53.362;-1.518;2024-03-23T05:18:54;98642.38;;;2.63;87.19
22020;BME280;51298;53.362;-1.518;2024-03-23T05:21:28;98640.38;;;2.66;87.11
22020;BME280;51298;53.362;-1.518;2024-03-23T05:24:15;98633.94;;;2.61;86.32
22020;BME280;51298;53.362;-1.518;2024-03-23T05:26:47;98640.66;;;2.52;86.43
22020;BME280;51298;53.362;-1.518;2024-03-23T05:29:34;98634.16;;;2.37;87.93
22020;BME280;51298;53.362;-1.518;2024-03-23T05:32:07;98634.88;;;2.39;87.05
22020;BME280;51298;53.362;-1.518;2024-03-23T05:34:55;98634.41;;;2.34;87.27
22020;BME280;51298;53.362;-1.518;2024-03-23T05:37:30;98634.78;;;2.29;87.72
22020;BME280;51298;53.362;-1.518;2024-03-23T05:40:18;98629.22;;;2.45;86.83
22020;BME280;51298;53.362;-1.518;2024-03-23T05:42:52;98629.41;;;2.53;86.61
22020;BME280;51298;53.362;-1.518;2024-03-23T05:45:38;98629.97;;;2.57;86.68
22020;BME280;51298;53.362;-1.518;2024-03-23T05:48:14;98627.53;;;2.55;87.35
22020;BME280;51298;53.362;-1.518;2024-03-23T05:51:04;98623.06;;;2.57;88.12
22020;BME280;51298;53.362;-1.518;2024-03-23T05:53:37;98618.78;;;2.47;87.10
22020;BME280;51298;53.362;-1.518;2024-03-23T05:56:25;98610.28;;;2.35;87.48
22020;BME280;51298;53.362;-1.518;2024-03-23T05:59:02;98609.97;;;2.28;86.93
22020;BME280;51298;53.362;-1.518;2024-03-23T06:01:51;98599.91;;;2.25;86.75
22020;BME280;51298;53.362;-1.518;2024-03-23T06:04:24;98594.06;;;2.23;86.33
22020;BME280;51298;53.362;-1.518;2024-03-23T06:07:10;98602.66;;;2.33;84.97
22020;BME280;51298;53.362;-1.518;2024-03-23T06:09:46;98607.72;;;2.35;85.59
22020;BME280;51298;53.362;-1.518;2024-03-23T06:12:35;98609.16;;;2.49;85.47
22020;BME280;51298;53.362;-1.518;2024-03-23T06:15:09;98601.56;;;2.47;85.63
22020;BME280;51298;53.362;-1.518;2024-03-23T06:18:01;98604.88;;;2.38;86.06
22020;BME280;51298;53.362;-1.518;2024-03-23T06:20:35;98601.47;;;2.37;86.06
22020;BME280;51298;53.362;-1.518;2024-03-23T06:23:22;98598.16;;;2.47;84.67
22020;BME280;51298;53.362;-1.518;2024-03-23T06:25:55;98605.56;;;2.40;85.12
22020;BME280;51298;53.362;-1.518;2024-03-23T06:28:40;98600.69;;;2.58;85.71
22020;BME280;51298;53.362;-1.518;2024-03-23T06:31:32;98617.72;;;2.70;86.05
22020;BME280;51298;53.362;-1.518;2024-03-23T06:34:32;98618.66;;;2.69;86.23
22020;BME280;51298;53.362;-1.518;2024-03-23T06:37:05;98613.13;;;2.53;86.81
22020;BME280;51298;53.362;-1.518;2024-03-23T06:39:51;98602.13;;;2.51;87.53
22020;BME280;51298;53.362;-1.518;2024-03-23T06:42:30;98616.78;;;2.50;87.12
22020;BME280;51298;53.362;-1.518;2024-03-23T06:45:17;98612.63;;;2.59;86.29
22020;BME280;51298;53.362;-1.518;2024-03-23T06:47:58;98599.97;;;2.77;85.82
22020;BME280;51298;53.362;-1.518;2024-03-23T06:50:54;98600.19;;;2.85;86.32
22020;BME280;51298;53.362;-1.518;2024-03-23T06:53:27;98605.78;;;3.00;85.51
22020;BME280;51298;53.362;-1.518;2024-03-23T06:56:21;98595.53;;;3.09;85.28
22020;BME280;51298;53.362;-1.518;2024-03-23T06:58:54;98586.59;;;3.13;83.48
22020;BME280;51298;53.362;-1.518;2024-03-23T07:01:39;98586.28;;;3.07;83.73
22020;BME280;51298;53.362;-1.518;2024-03-23T07:04:12;98586.44;;;3.46;82.51
22020;BME280;51298;53.362;-1.518;2024-03-23T07:06:58;98591.94;;;3.72;82.57
22020;BME280;51298;53.362;-1.518;2024-03-23T07:09:31;98594.25;;;3.25;83.93
22020;BME280;51298;53.362;-1.518;2024-03-23T07:12:17;98592.72;;;3.22;84.26
22020;BME280;51298;53.362;-1.518;2024-03-23T07:14:51;98605.22;;;3.17;83.88
22020;BME280;51298;53.362;-1.518;2024-03-23T07:17:37;98599.91;;;3.18;84.53
22020;BME280;51298;53.362;-1.518;2024-03-23T07:20:10;98595.84;;;3.16;83.85
22020;BME280;51298;53.362;-1.518;2024-03-23T07:22:57;98594.09;;;3.26;83.39
22020;BME280;51298;53.362;-1.518;2024-03-23T07:25:29;98594.22;;;3.55;82.85
22020;BME280;51298;53.362;-1.518;2024-03-23T07:28:16;98598.72;;;3.73;81.77
22020;BME280;51298;53.362;-1.518;2024-03-23T07:30:48;98593.19;;;4.55;82.21
22020;BME280;51298;53.362;-1.518;2024-03-23T07:33:41;98591.03;;;4.50;78.26
22020;BME280;51298;53.362;-1.518;2024-03-23T07:36:14;98597.97;;;4.11;80.88
22020;BME280;51298;53.362;-1.518;2024-03-23T07:39:00;98597.97;;;5.71;74.89
22020;BME280;51298;53.362;-1.518;2024-03-23T07:41:33;98611.94;;;6.59;72.40
22020;BME280;51298;53.362;-1.518;2024-03-23T07:44:19;98611.09;;;5.42;74.52
22020;BME280;51298;53.362;-1.518;2024-03-23T07:46:52;98608.03;;;4.53;79.49
22020;BME280;51298;53.362;-1.518;2024-03-23T07:49:38;98635.94;;;3.60;83.19
22020;BME280;51298;53.362;-1.518;2024-03-23T07:52:12;98623.59;;;3.24;85.01
22020;BME280;51298;53.362;-1.518;2024-03-23T07:54:59;98607.38;;;3.12;86.19
22020;BME280;51298;53.362;-1.518;2024-03-23T07:57:32;98611.25;;;3.37;85.47
22020;BME280;51298;53.362;-1.518;2024-03-23T08:00:20;98594.81;;;3.88;84.27
22020;BME280;51298;53.362;-1.518;2024-03-23T08:02:52;98599.69;;;3.72;83.41
22020;BME280;51298;53.362;-1.518;2024-03-23T08:05:39;98592.25;;;4.56;83.23
22020;BME280;51298;53.362;-1.518;2024-03-23T08:08:12;98589.09;;;5.92;77.47
22020;BME280;51298;53.362;-1.518;2024-03-23T08:10:58;98586.59;;;5.82;76.83
22020;BME280;51298;53.362;-1.518;2024-03-23T08:13:31;98594.38;;;5.27;77.88
22020;BME280;51298;53.362;-1.518;2024-03-23T08:16:17;98601.22;;;4.23;81.10
22020;BME280;51298;53.362;-1.518;2024-03-23T08:18:54;98600.66;;;3.90;84.32
22020;BME280;51298;53.362;-1.518;2024-03-23T08:21:41;98595.22;;;3.83;84.92
22020;BME280;51298;53.362;-1.518;2024-03-23T08:24:22;98589.25;;;4.02;84.61
22020;BME280;51298;53.362;-1.518;2024-03-23T08:27:08;98597.56;;;3.96;84.06
22020;BME280;51298;53.362;-1.518;2024-03-23T08:29:45;98589.38;;;3.81;83.78
22020;BME280;51298;53.362;-1.518;2024-03-23T08:32:41;98575.91;;;3.87;84.87
22020;BME280;51298;53.362;-1.518;2024-03-23T08:35:15;98584.63;;;4.06;83.90
22020;BME280;51298;53.362;-1.518;2024-03-23T08:38:01;98574.63;;;4.88;81.22
22020;BME280;51298;53.362;-1.518;2024-03-23T08:40:34;98557.94;;;6.37;75.32
22020;BME280;51298;53.362;-1.518;2024-03-23T08:43:22;98546.09;;;7.13;72.93
22020;BME280;51298;53.362;-1.518;2024-03-23T08:45:54;98540.78;;;8.30;69.82
22020;BME280;51298;53.362;-1.518;2024-03-23T08:48:42;98544.88;;;8.00;69.14
22020;BME280;51298;53.362;-1.518;2024-03-23T08:51:16;98554.06;;;6.59;72.71
22020;BME280;51298;53.362;-1.518;2024-03-23T08:54:03;98552.91;;;6.53;73.63
22020;BME280;51298;53.362;-1.518;2024-03-23T08:56:35;98531.78;;;7.59;70.50
22020;BME280;51298;53.362;-1.518;2024-03-23T08:59:21;98531.41;;;8.53;67.38
22020;BME280;51298;53.362;-1.518;2024-03-23T09:01:56;98546.38;;;7.09;70.47
22020;BME280;51298;53.362;-1.518;2024-03-23T09:04:44;98538.31;;;7.79;70.35
22020;BME280;51298;53.362;-1.518;2024-03-23T09:07:17;98540.13;;;7.87;67.66
22020;BME280;51298;53.362;-1.518;2024-03-23T09:10:03;98538.50;;;8.02;67.76
22020;BME280;51298;53.362;-1.518;2024-03-23T09:12:37;98544.56;;;6.76;70.61
22020;BME280;51298;53.362;-1.518;2024-03-23T09:15:24;98551.25;;;7.04;71.29
22020;BME280;51298;53.362;-1.518;2024-03-23T09:17:59;98533.78;;;7.73;69.94
22020;BME280;51298;53.362;-1.518;2024-03-23T09:20:44;98529.28;;;8.00;66.68
22020;BME280;51298;53.362;-1.518;2024-03-23T09:23:17;98526.50;;;8.26;65.19
22020;BME280;51298;53.362;-1.518;2024-03-23T09:26:03;98518.88;;;8.00;64.13
22020;BME280;51298;53.362;-1.518;2024-03-23T09:28:36;98517.53;;;7.79;65.22
22020;BME280;51298;53.362;-1.518;2024-03-23T09:31:23;98510.88;;;7.77;66.07
22020;BME280;51298;53.362;-1.518;2024-03-23T09:33:56;98529.09;;;8.10;67.23
22020;BME280;51298;53.362;-1.518;2024-03-23T09:36:41;98535.00;;;5.88;71.67
22020;BME280;51298;53.362;-1.518;2024-03-23T09:39:15;98528.69;;;5.46;77.11
22020;BME280;51298;53.362;-1.518;2024-03-23T09:42:01;98539.09;;;4.81;78.70
22020;BME280;51298;53.362;-1.518;2024-03-23T09:44:35;98518.47;;;4.61;79.80
22020;BME280;51298;53.362;-1.518;2024-03-23T09:47:21;98529.84;;;4.69;80.65
22020;BME280;51298;53.362;-1.518;2024-03-23T09:49:54;98523.06;;;5.05;79.26
22020;BME280;51298;53.362;-1.518;2024-03-23T09:52:40;98535.28;;;5.85;77.49
22020;BME280;51298;53.362;-1.518;2024-03-23T09:55:15;98517.41;;;6.88;72.67
22020;BME280;51298;53.362;-1.518;2024-03-23T09:58:03;98518.63;;;7.61;69.49
22020;BME280;51298;53.362;-1.518;2024-03-23T10:00:38;98488.94;;;8.37;64.17
22020;BME280;51298;53.362;-1.518;2024-03-23T10:03:28;98505.38;;;8.13;66.27
22020;BME280;51298;53.362;-1.518;2024-03-23T10:06:03;98509.94;;;8.27;65.72
22020;BME280;51298;53.362;-1.518;2024-03-23T10:08:49;98493.66;;;8.17;64.02
22020;BME280;51298;53.362;-1.518;2024-03-23T10:11:22;98495.44;;;7.75;65.68
22020;BME280;51298;53.362;-1.518;2024-03-23T10:14:08;98504.69;;;6.77;67.57
22020;BME280;51298;53.362;-1.518;2024-03-23T10:16:41;98490.81;;;6.94;66.90
22020;BME280;51298;53.362;-1.518;2024-03-23T10:19:31;98507.97;;;7.96;64.75
22020;BME280;51298;53.362;-1.518;2024-03-23T10:22:04;98490.69;;;8.77;64.01
22020;BME280;51298;53.362;-1.518;2024-03-23T10:24:51;98507.13;;;7.88;63.92
22020;BME280;51298;53.362;-1.518;2024-03-23T10:27:24;98498.53;;;7.12;64.23
22020;BME280;51298;53.362;-1.518;2024-03-23T10:30:15;98480.31;;;7.87;64.13
22020;BME280;51298;53.362;-1.518;2024-03-23T10:32:51;98490.22;;;7.83;62.88
22020;BME280;51298;53.362;-1.518;2024-03-23T10:35:39;98485.47;;;7.46;64.99
22020;BME280;51298;53.362;-1.518;2024-03-23T10:38:15;98484.84;;;7.02;64.93
22020;BME280;51298;53.362;-1.518;2024-03-23T10:41:02;98496.66;;;6.36;67.79
22020;BME280;51298;53.362;-1.518;2024-03-23T10:43:36;98509.13;;;5.79;69.50
22020;BME280;51298;53.362;-1.518;2024-03-23T10:46:22;98503.81;;;5.62;70.97
22020;BME280;51298;53.362;-1.518;2024-03-23T10:48:56;98506.75;;;5.50;73.34
22020;BME280;51298;53.362;-1.518;2024-03-23T10:51:42;98515.22;;;5.70;73.00
22020;BME280;51298;53.362;-1.518;2024-03-23T10:54:15;98503.19;;;5.69;72.24
22020;BME280;51298;53.362;-1.518;2024-03-23T10:59:38;98531.69;;;5.69;72.88
22020;BME280;51298;53.362;-1.518;2024-03-23T11:02:25;98525.38;;;4.61;77.07
22020;BME280;51298;53.362;-1.518;2024-03-23T11:04:59;98518.94;;;4.28;79.90
22020;BME280;51298;53.362;-1.518;2024-03-23T11:07:49;98507.59;;;4.48;80.40
22020;BME280;51298;53.362;-1.518;2024-03-23T11:10:28;98521.22;;;4.40;79.41
22020;BME280;51298;53.362;-1.518;2024-03-23T11:13:23;98502.88;;;4.81;78.56
22020;BME280;51298;53.362;-1.518;2024-03-23T11:15:56;98500.56;;;5.33;78.35
22020;BME280;51298;53.362;-1.518;2024-03-23T11:18:47;98503.88;;;5.88;76.58
22020;BME280;51298;53.362;-1.518;2024-03-23T11:21:53;98492.25;;;6.10;74.19
22020;BME280;51298;53.362;-1.518;2024-03-23T11:24:39;98477.88;;;6.68;72.85
22020;BME280;51298;53.362;-1.518;2024-03-23T11:27:16;98457.75;;;6.96;70.94
22020;BME280;51298;53.362;-1.518;2024-03-23T11:32:46;98462.41;;;7.35;68.64
22020;BME280;51298;53.362;-1.518;2024-03-23T11:35:42;98436.72;;;7.24;65.80
22020;BME280;51298;53.362;-1.518;2024-03-23T11:38:16;98476.00;;;6.26;69.46
22020;BME280;51298;53.362;-1.518;2024-03-23T11:41:02;98492.19;;;5.84;72.83
22020;BME280;51298;53.362;-1.518;2024-03-23T11:43:36;98475.56;;;5.42;74.81
22020;BME280;51298;53.362;-1.518;2024-03-23T11:46:23;98482.53;;;5.41;75.30
22020;BME280;51298;53.362;-1.518;2024-03-23T11:48:56;98478.41;;;5.66;74.55
22020;BME280;51298;53.362;-1.518;2024-03-23T11:51:41;98479.88;;;5.69;73.86
22020;BME280;51298;53.362;-1.518;2024-03-23T11:54:14;98484.56;;;5.65;71.45
22020;BME280;51298;53.362;-1.518;2024-03-23T11:57:02;98483.91;;;5.99;72.90
22020;BME280;51298;53.362;-1.518;2024-03-23T11:59:41;98483.09;;;5.98;72.04
22020;BME280;51298;53.362;-1.518;2024-03-23T12:02:26;98473.78;;;6.31;72.29
22020;BME280;51298;53.362;-1.518;2024-03-23T12:05:14;98475.19;;;6.78;70.67
22020;BME280;51298;53.362;-1.518;2024-03-23T12:08:17;98458.09;;;6.67;67.40
22020;BME280;51298;53.362;-1.518;2024-03-23T12:10:52;98469.78;;;6.45;67.19
22020;BME280;51298;53.362;-1.518;2024-03-23T12:13:41;98470.06;;;6.34;67.67
22020;BME280;51298;53.362;-1.518;2024-03-23T12:16:24;98444.06;;;6.26;67.25
22020;BME280;51298;53.362;-1.518;2024-03-23T12:19:09;98445.41;;;6.64;67.42
22020;BME280;51298;53.362;-1.518;2024-03-23T12:21:42;98453.44;;;6.79;65.20
22020;BME280;51298;53.362;-1.518;2024-03-23T12:24:29;98443.16;;;6.35;66.06
22020;BME280;51298;53.362;-1.518;2024-03-23T12:27:03;98441.53;;;6.08;69.58
22020;BME280;51298;53.362;-1.518;2024-03-23T12:29:49;98464.78;;;5.82;69.71
22020;BME280;51298;53.362;-1.518;2024-03-23T12:32:22;98461.22;;;5.83;71.60
22020;BME280;51298;53.362;-1.518;2024-03-23T12:35:09;98449.81;;;6.11;70.19
22020;BME280;51298;53.362;-1.518;2024-03-23T12:37:43;98456.28;;;6.33;69.90
22020;BME280;51298;53.362;-1.518;2024-03-23T12:40:29;98448.75;;;6.82;68.33
22020;BME280;51298;53.362;-1.518;2024-03-23T12:43:02;98436.56;;;7.25;66.39
22020;BME280;51298;53.362;-1.518;2024-03-23T12:45:53;98434.78;;;7.34;64.14
22020;BME280;51298;53.362;-1.518;2024-03-23T12:48:27;98429.88;;;7.15;61.45
22020;BME280;51298;53.362;-1.518;2024-03-23T12:51:14;98420.84;;;7.68;63.99
22020;BME280;51298;53.362;-1.518;2024-03-23T12:53:47;98412.75;;;7.54;61.89
22020;BME280;51298;53.362;-1.518;2024-03-23T12:56:33;98424.06;;;7.29;64.29
22020;BME280;51298;53.362;-1.518;2024-03-23T12:59:06;98413.53;;;7.30;62.05
22020;BME280;51298;53.362;-1.518;2024-03-23T13:01:53;98414.13;;;7.16;61.89
22020;BME280;51298;53.362;-1.518;2024-03-23T13:04:28;98393.25;;;6.83;61.25
22020;BME280;51298;53.362;-1.518;2024-03-23T13:07:14;98395.25;;;6.90;62.03
22020;BME280;51298;53.362;-1.518;2024-03-23T13:09:50;98395.25;;;6.98;63.16
22020;BME280;51298;53.362;-1.518;2024-03-23T13:12:37;98383.91;;;7.07;62.39
22020;BME280;51298;53.362;-1.518;2024-03-23T13:15:10;98385.41;;;7.26;63.03
22020;BME280;51298;53.362;-1.518;2024-03-23T13:17:58;98381.50;;;7.14;61.50
22020;BME280;51298;53.362;-1.518;2024-03-23T13:20:31;98380.88;;;7.12;61.40
22020;BME280;51298;53.362;-1.518;2024-03-23T13:23:17;98390.88;;;6.98;62.05
22020;BME280;51298;53.362;-1.518;2024-03-23T13:25:54;98396.44;;;7.03;63.38
22020;BME280;51298;53.362;-1.518;2024-03-23T13:28:41;98388.00;;;7.26;62.40
22020;BME280;51298;53.362;-1.518;2024-03-23T13:31:15;98389.66;;;7.76;62.18
22020;BME280;51298;53.362;-1.518;2024-03-23T13:34:01;98377.63;;;7.34;59.99
22020;BME280;51298;53.362;-1.518;2024-03-23T13:36:33;98396.63;;;7.26;61.23
22020;BME280;51298;53.362;-1.518;2024-03-23T13:39:19;98399.41;;;7.49;61.06
22020;BME280;51298;53.362;-1.518;2024-03-23T13:41:52;98396.47;;;7.52;60.83
22020;BME280;51298;53.362;-1.518;2024-03-23T13:44:38;98398.91;;;7.38;61.47
22020;BME280;51298;53.362;-1.518;2024-03-23T13:47:11;98402.47;;;7.20;59.85
22020;BME280;51298;53.362;-1.518;2024-03-23T13:49:58;98392.41;;;7.25;60.40
22020;BME280;51298;53.362;-1.518;2024-03-23T13:52:32;98396.84;;;7.66;60.45
22020;BME280;51298;53.362;-1.518;2024-03-23T13:55:21;98381.22;;;7.33;60.47
22020;BME280;51298;53.362;-1.518;2024-03-23T13:57:54;98397.28;;;7.28;60.43
22020;BME280;51298;53.362;-1.518;2024-03-23T14:00:40;98406.34;;;7.16;61.64
22020;BME280;51298;53.362;-1.518;2024-03-23T14:03:15;98386.56;;;7.23;60.01
22020;BME280;51298;53.362;-1.518;2024-03-23T14:06:02;98382.38;;;7.39;60.25
22020;BME280;51298;53.362;-1.518;2024-03-23T14:08:36;98384.97;;;7.55;61.28
22020;BME280;51298;53.362;-1.518;2024-03-23T14:11:22;98388.34;;;6.72;61.65
22020;BME280;51298;53.362;-1.518;2024-03-23T14:13:55;98384.47;;;6.68;64.31
22020;BME280;51298;53.362;-1.518;2024-03-23T14:16:40;98366.94;;;6.62;64.21
22020;BME280;51298;53.362;-1.518;2024-03-23T14:19:13;98380.16;;;6.43;63.24
22020;BME280;51298;53.362;-1.518;2024-03-23T14:21:59;98385.38;;;6.51;64.35
22020;BME280;51298;53.362;-1.518;2024-03-23T14:24:33;98383.47;;;6.27;65.14
22020;BME280;51298;53.362;-1.518;2024-03-23T14:27:20;98384.38;;;6.18;67.48
22020;BME280;51298;53.362;-1.518;2024-03-23T14:29:54;98394.03;;;6.33;67.30
22020;BME280;51298;53.362;-1.518;2024-03-23T14:32:40;98385.66;;;6.14;68.68
22020;BME280;51298;53.362;-1.518;2024-03-23T14:35:13;98382.78;;;6.17;67.71
22020;BME280;51298;53.362;-1.518;2024-03-23T14:37:59;98368.22;;;6.24;68.12
22020;BME280;51298;53.362;-1.518;2024-03-23T14:40:32;98365.91;;;6.47;67.82
22020;BME280;51298;53.362;-1.518;2024-03-23T14:43:19;98361.31;;;6.41;66.07
22020;BME280;51298;53.362;-1.518;2024-03-23T14:46:13;98356.63;;;6.44;67.19
22020;BME280;51298;53.362;-1.518;2024-03-23T14:49:01;98366.56;;;6.57;67.66
22020;BME280;51298;53.362;-1.518;2024-03-23T14:51:34;98342.16;;;6.33;68.56
22020;BME280;51298;53.362;-1.518;2024-03-23T14:54:20;98335.50;;;6.23;69.24
22020;BME280;51298;53.362;-1.518;2024-03-23T14:56:53;98330.56;;;6.11;69.55
22020;BME280;51298;53.362;-1.518;2024-03-23T14:59:40;98325.38;;;6.11;69.91
22020;BME280;51298;53.362;-1.518;2024-03-23T15:02:18;98349.22;;;6.15;71.21
22020;BME280;51298;53.362;-1.518;2024-03-23T15:05:06;98337.41;;;6.21;71.75
22020;BME280;51298;53.362;-1.518;2024-03-23T15:07:42;98330.13;;;6.24;72.14
22020;BME280;51298;53.362;-1.518;2024-03-23T15:10:28;98327.63;;;6.06;72.60
22020;BME280;51298;53.362;-1.518;2024-03-23T15:13:01;98338.72;;;6.25;73.36
22020;BME280;51298;53.362;-1.518;2024-03-23T15:15:46;98314.81;;;6.39;72.78
22020;BME280;51298;53.362;-1.518;2024-03-23T15:18:21;98308.31;;;6.35;73.25
22020;BME280;51298;53.362;-1.518;2024-03-23T15:21:08;98304.63;;;6.46;73.55